Time;durP1;ratioP1;P1;durP2;ratioP2;P2;SDS_P1;SDS_P2;PMS_P1;PMS_P2;Temp;Humidity;BMP_temperature;BMP_pressure;BME280_temperature;BME280_humidity;BME280_pressure;Samples;Min_cycle;Max_cycle;Signal;HPM_P1;HPM_P2
2023/08/18 00:00:14;;;;;;;;;;;;;;;;;;4927035;29;19978;-82
2023/08/18 00:02:39;;;;;;;;;;;;;;;;;;4909321;29;19925;-82
2023/08/18 00:05:05;;;;;;;;;;;;;;;;;;4909418;29;19925;-82
2023/08/18 00:07:30;;;;;;;;;;;;;;;;;;4907576;29;19934;-82
2023/08/18 00:09:55;;;;;;;;;;;;;;;;;;4896206;29;19921;-82
2023/08/18 00:12:23;;;;;;;;;;;;;;;;;;4923828;29;20204;-81
2023/08/18 00:14:50;;;;;;;;;;;;;;;;;;4923087;29;19925;-82
2023/08/18 00:17:15;;;;;;;;;;;;;;;;;;4907559;29;19923;-82
2023/08/18 00:19:40;;;;;;;;;;;;;;;;;;4911691;29;19921;-82
2023/08/18 00:22:13;;;;;;;;;;;;;;;;;;4910632;29;19915;-83
2023/08/18 00:24:39;;;;;;;;;;;;;;;;;;4922572;29;19914;-82
2023/08/18 00:27:04;;;;;;;;;;;;;;;;;;4908152;29;19915;-83
2023/08/18 00:29:29;;;;;;;;;;;;;;;;;;4909088;29;19923;-82
2023/08/18 00:31:58;;;;;;;;;;;;;;;;;;4907097;29;20022;-82
2023/08/18 00:34:24;;;;;;;;;;;;;;;;;;4884629;29;20057;-82
2023/08/18 00:36:49;;;;;;;;;;;;;;;;;;4919310;29;19927;-82
2023/08/18 00:39:15;;;;;;;;;;;;;;;;;;4908314;29;19925;-83
2023/08/18 00:41:40;;;;;;;;;;;;;;;;;;4908624;29;19919;-81
2023/08/18 00:44:05;;;;;;;;;;;;;;;;;;4909544;29;19919;-82
2023/08/18 00:46:31;;;;;;;;;;;;;;;;;;4909022;29;20005;-82
2023/08/18 00:49:00;;;;;;;;;;;;;;;;;;4909303;29;20367;-82
2023/08/18 00:51:25;;;;;;;;;;;;;;;;;;4908407;29;19919;-82
2023/08/18 00:53:50;;;;;;;;;;;;;;;;;;4910366;29;20002;-80
2023/08/18 00:56:16;;;;;;;;;;;;;;;;;;4907894;29;19919;-82
2023/08/18 00:58:41;;;;;;;;;;;;;;;;;;4905705;29;19923;-82
2023/08/18 01:01:06;;;;;;;;;;;;;;;;;;4908472;29;19922;-83
2023/08/18 01:03:31;;;;;;;;;;;;;;;;;;4909820;29;20395;-83
2023/08/18 01:05:58;;;;;;;;;;;;;;;;;;4896006;29;20303;-82
2023/08/18 01:08:24;;;;;;;;;;;;;;;;;;4907318;29;19915;-82
2023/08/18 01:10:57;;;;;;;;;;;;;;;;;;4908773;29;19915;-82
2023/08/18 01:13:31;;;;;;;;;;;;;;;;;;4922709;29;19966;-82
2023/08/18 01:15:56;;;;;;;;;;;;;;;;;;4920587;29;19919;-83
2023/08/18 01:18:25;;;;;;;;;;;;;;;;;;4909241;29;19923;-81
2023/08/18 01:20:51;;;;;;;;;;;;;;;;;;4903755;29;19919;-82
2023/08/18 01:23:17;;;;;;;;;;;;;;;;;;4894254;29;19946;-82
2023/08/18 01:25:42;;;;;;;;;;;;;;;;;;4893608;29;19960;-82
2023/08/18 01:28:07;;;;;;;;;;;;;;;;;;4890733;29;19919;-82
2023/08/18 01:30:35;;;;;;;;;;;;;;;;;;4906676;29;20001;-83
2023/08/18 01:33:12;;;;;;;;;;;;;;;;;;4907174;29;19927;-82
2023/08/18 01:35:39;;;;;;;;;;;;;;;;;;4912691;29;20321;-82
2023/08/18 01:38:04;;;;;;;;;;;;;;;;;;4911262;29;19974;-82
2023/08/18 01:40:29;;;;;;;;;;;;;;;;;;4906767;29;19923;-82
2023/08/18 01:42:55;;;;;;;;;;;;;;;;;;4919284;29;19926;-82
2023/08/18 01:45:23;;;;;;;;;;;;;;;;;;4908462;29;20371;-82
2023/08/18 01:47:48;;;;;;;;;;;;;;;;;;4910849;29;19915;-83
2023/08/18 01:50:13;;;;;;;;;;;;;;;;;;4908661;29;19918;-82
2023/08/18 01:52:38;;;;;;;;;;;;;;;;;;4919642;29;19918;-82
2023/08/18 01:55:04;;;;;;;;;;;;;;;;;;4906801;29;19923;-82
2023/08/18 01:57:29;;;;;;;;;;;;;;;;;;4897095;29;19934;-82
2023/08/18 01:59:55;;;;;;;;;;;;;;;;;;4891011;29;19915;-82
2023/08/18 02:02:20;;;;;;;;;;;;;;;;;;4906492;29;20037;-82
2023/08/18 02:04:45;;;;;;;;;;;;;;;;;;4917359;29;19918;-82
2023/08/18 02:07:10;;;;;;;;;;;;;;;;;;4903360;29;19922;-82
2023/08/18 02:09:39;;;;;;;;;;;;;;;;;;4920336;29;19926;-83
2023/08/18 02:12:04;;;;;;;;;;;;;;;;;;4923028;29;20835;-81
2023/08/18 02:14:29;;;;;;;;;;;;;;;;;;4895609;29;19923;-82
2023/08/18 02:16:55;;;;;;;;;;;;;;;;;;4890072;29;19919;-82
2023/08/18 02:19:21;;;;;;;;;;;;;;;;;;4906730;29;19919;-81
2023/08/18 02:21:46;;;;;;;;;;;;;;;;;;4906109;29;19927;-82
2023/08/18 02:24:14;;;;;;;;;;;;;;;;;;4904428;29;20390;-81
2023/08/18 02:26:40;;;;;;;;;;;;;;;;;;4920389;29;19918;-80
2023/08/18 02:29:05;;;;;;;;;;;;;;;;;;4922014;29;20663;-82
2023/08/18 02:31:30;;;;;;;;;;;;;;;;;;4906507;29;19918;-81
2023/08/18 02:33:56;;;;;;;;;;;;;;;;;;4902776;29;19958;-81
2023/08/18 02:36:21;;;;;;;;;;;;;;;;;;4906153;29;20288;-82
2023/08/18 02:38:46;;;;;;;;;;;;;;;;;;4908212;29;19918;-81
2023/08/18 02:41:12;;;;;;;;;;;;;;;;;;4906326;29;19926;-80
2023/08/18 02:43:37;;;;;;;;;;;;;;;;;;4899051;29;19926;-82
2023/08/18 02:46:03;;;;;;;;;;;;;;;;;;4919696;29;19944;-82
2023/08/18 02:48:28;;;;;;;;;;;;;;;;;;4888959;29;20010;-83
2023/08/18 02:51:07;;;;;;;;;;;;;;;;;;4906555;29;19919;-82
2023/08/18 02:53:32;;;;;;;;;;;;;;;;;;4907484;29;19923;-82
2023/08/18 02:56:00;;;;;;;;;;;;;;;;;;4917018;29;19969;-81
2023/08/18 02:58:26;;;;;;;;;;;;;;;;;;4908863;29;19929;-82
2023/08/18 03:00:58;;;;;;;;;;;;;;;;;;4906577;29;20930;-82
2023/08/18 03:03:23;;;;;;;;;;;;;;;;;;4909487;29;19938;-81
2023/08/18 03:05:49;;;;;;;;;;;;;;;;;;4907437;29;20390;-82
2023/08/18 03:08:14;;;;;;;;;;;;;;;;;;4921894;29;19915;-83
2023/08/18 03:10:42;;;;;;;;;;;;;;;;;;4907028;29;19918;-81
2023/08/18 03:13:07;;;;;;;;;;;;;;;;;;4909107;29;20295;-82
2023/08/18 03:15:38;;;;;;;;;;;;;;;;;;4920121;29;19934;-82
2023/08/18 03:18:04;;;;;;;;;;;;;;;;;;4907830;29;19923;-82
2023/08/18 03:20:29;;;;;;;;;;;;;;;;;;4894345;29;19923;-82
2023/08/18 03:22:54;;;;;;;;;;;;;;;;;;4877399;29;19919;-82
2023/08/18 03:25:19;;;;;;;;;;;;;;;;;;4906640;29;20394;-82
2023/08/18 03:27:44;;;;;;;;;;;;;;;;;;4905205;29;20693;-82
2023/08/18 03:30:11;;;;;;;;;;;;;;;;;;4906175;29;20235;-81
2023/08/18 03:32:36;;;;;;;;;;;;;;;;;;4921688;29;19967;-82
2023/08/18 03:35:01;;;;;;;;;;;;;;;;;;4920415;29;20339;-82
2023/08/18 03:37:29;;;;;;;;;;;;;;;;;;4923397;29;19919;-82
2023/08/18 03:39:55;;;;;;;;;;;;;;;;;;4892684;29;19915;-82
2023/08/18 03:42:20;;;;;;;;;;;;;;;;;;4921686;29;20402;-82
2023/08/18 03:44:45;;;;;;;;;;;;;;;;;;4906186;29;19918;-80
2023/08/18 03:47:11;;;;;;;;;;;;;;;;;;4905734;29;20054;-81
2023/08/18 03:49:36;;;;;;;;;;;;;;;;;;4907297;29;19953;-82
2023/08/18 03:52:01;;;;;;;;;;;;;;;;;;4906133;29;20025;-82
2023/08/18 03:54:26;;;;;;;;;;;;;;;;;;4916510;29;20371;-83
2023/08/18 03:56:52;;;;;;;;;;;;;;;;;;4905221;29;20276;-82
2023/08/18 03:59:18;;;;;;;;;;;;;;;;;;4896639;29;19919;-82
2023/08/18 04:01:43;;;;;;;;;;;;;;;;;;4907833;29;19965;-81
2023/08/18 04:04:08;;;;;;;;;;;;;;;;;;4924308;29;20292;-82
2023/08/18 04:06:33;;;;;;;;;;;;;;;;;;4906622;29;20552;-82
2023/08/18 04:09:15;;;;;;;;;;;;;;;;;;4905727;29;19957;-81
2023/08/18 04:11:41;;;;;;;;;;;;;;;;;;4906619;29;20288;-81
2023/08/18 04:14:06;;;;;;;;;;;;;;;;;;4906359;29;19915;-83
2023/08/18 04:16:31;;;;;;;;;;;;;;;;;;4920058;29;20289;-81
2023/08/18 04:18:57;;;;;;;;;;;;;;;;;;4908403;29;19926;-82
2023/08/18 04:21:22;;;;;;;;;;;;;;;;;;4910330;29;19919;-80
2023/08/18 04:23:48;;;;;;;;;;;;;;;;;;4900089;29;20019;-82
2023/08/18 04:26:15;;;;;;;;;;;;;;;;;;4902480;29;19922;-82
2023/08/18 04:28:45;;;;;;;;;;;;;;;;;;4897619;29;20335;-82
2023/08/18 04:31:11;;;;;;;;;;;;;;;;;;4910477;29;20025;-82
2023/08/18 04:33:36;;;;;;;;;;;;;;;;;;4910153;29;19926;-82
2023/08/18 04:36:09;;;;;;;;;;;;;;;;;;4900951;29;20931;-82
2023/08/18 04:38:35;;;;;;;;;;;;;;;;;;4910430;29;19923;-82
2023/08/18 04:41:00;;;;;;;;;;;;;;;;;;4910511;29;20367;-82
2023/08/18 04:43:26;;;;;;;;;;;;;;;;;;4896908;29;20422;-82
2023/08/18 04:45:52;;;;;;;;;;;;;;;;;;4900423;29;19915;-82
2023/08/18 04:48:18;;;;;;;;;;;;;;;;;;4908080;29;19941;-82
2023/08/18 04:50:43;;;;;;;;;;;;;;;;;;4915295;29;19918;-82
2023/08/18 04:53:08;;;;;;;;;;;;;;;;;;4910014;29;19925;-82
2023/08/18 04:55:36;;;;;;;;;;;;;;;;;;4921015;29;19997;-82
2023/08/18 04:58:02;;;;;;;;;;;;;;;;;;4923866;29;19927;-82
2023/08/18 05:00:28;;;;;;;;;;;;;;;;;;4910458;29;19918;-82
2023/08/18 05:02:53;;;;;;;;;;;;;;;;;;4908356;29;19919;-82
2023/08/18 05:05:18;;;;;;;;;;;;;;;;;;4909073;29;20168;-81
2023/08/18 05:07:43;;;;;;;;;;;;;;;;;;4926168;29;19923;-82
2023/08/18 05:10:09;;;;;;;;;;;;;;;;;;4911496;29;19919;-82
2023/08/18 05:12:34;;;;;;;;;;;;;;;;;;4907809;29;19978;-81
2023/08/18 05:14:59;;;;;;;;;;;;;;;;;;4907456;29;20159;-81
2023/08/18 05:17:34;;;;;;;;;;;;;;;;;;4916158;29;19926;-81
2023/08/18 05:19:59;;;;;;;;;;;;;;;;;;4901128;29;20430;-81
2023/08/18 05:22:24;;;;;;;;;;;;;;;;;;4907039;29;19926;-81
2023/08/18 05:24:49;;;;;;;;;;;;;;;;;;4911953;29;19915;-81
2023/08/18 05:27:23;;;;;;;;;;;;;;;;;;4905343;29;19942;-83
2023/08/18 05:29:49;;;;;;;;;;;;;;;;;;4913772;29;19926;-82
2023/08/18 05:32:14;;;;;;;;;;;;;;;;;;4891244;29;19927;-82
2023/08/18 05:34:39;;;;;;;;;;;;;;;;;;4922690;29;19923;-82
2023/08/18 05:37:05;;;;;;;;;;;;;;;;;;4904890;29;20263;-84
2023/08/18 05:39:30;;;;;;;;;;;;;;;;;;4900239;29;19941;-82
2023/08/18 05:41:56;;;;;;;;;;;;;;;;;;4910038;29;19919;-82
2023/08/18 05:44:21;;;;;;;;;;;;;;;;;;4909567;29;19923;-82
2023/08/18 05:46:46;;;;;;;;;;;;;;;;;;4915438;29;19918;-82
2023/08/18 05:49:17;;;;;;;;;;;;;;;;;;4899768;29;20477;-84
2023/08/18 05:51:44;;;;;;;;;;;;;;;;;;4906646;29;20507;-84
2023/08/18 05:54:09;;;;;;;;;;;;;;;;;;4924891;29;20351;-81
2023/08/18 05:56:34;;;;;;;;;;;;;;;;;;4893349;29;19918;-81
2023/08/18 05:59:04;;;;;;;;;;;;;;;;;;4901090;29;19923;-81
2023/08/18 06:01:29;;;;;;;;;;;;;;;;;;4883091;29;19922;-81
2023/08/18 06:03:54;;;;;;;;;;;;;;;;;;4907941;29;20406;-81
2023/08/18 06:06:20;;;;;;;;;;;;;;;;;;4906270;29;19923;-80
2023/08/18 06:08:45;;;;;;;;;;;;;;;;;;4898614;29;19962;-80
2023/08/18 06:11:11;;;;;;;;;;;;;;;;;;4889561;29;19943;-80
2023/08/18 06:13:37;;;;;;;;;;;;;;;;;;4906590;29;19919;-80
2023/08/18 06:16:02;;;;;;;;;;;;;;;;;;4908032;29;20278;-80
2023/08/18 06:18:30;;;;;;;;;;;;;;;;;;4907203;29;20622;-81
2023/08/18 06:20:56;;;;;;;;;;;;;;;;;;4898306;29;20275;-80
2023/08/18 06:23:21;;;;;;;;;;;;;;;;;;4903713;29;19922;-81
2023/08/18 06:25:46;;;;;;;;;;;;;;;;;;4907054;29;19919;-80
2023/08/18 06:28:12;;;;;;;;;;;;;;;;;;4906093;29;19978;-80
2023/08/18 06:30:39;;;;;;;;;;;;;;;;;;4904300;29;21016;-81
2023/08/18 06:33:05;;;;;;;;;;;;;;;;;;4914215;29;19926;-81
2023/08/18 06:35:30;;;;;;;;;;;;;;;;;;4905709;29;19962;-81
2023/08/18 06:37:55;;;;;;;;;;;;;;;;;;4898261;29;20005;-81
2023/08/18 06:40:25;;;;;;;;;;;;;;;;;;4899544;29;20041;-81
2023/08/18 06:42:50;;;;;;;;;;;;;;;;;;4901990;29;19918;-81
2023/08/18 06:45:15;;;;;;;;;;;;;;;;;;4907448;29;19934;-81
2023/08/18 06:47:40;;;;;;;;;;;;;;;;;;4905085;29;20346;-81
2023/08/18 06:50:06;;;;;;;;;;;;;;;;;;4907051;29;19930;-81
2023/08/18 06:52:34;;;;;;;;;;;;;;;;;;4896967;29;22048;-81
2023/08/18 06:54:59;;;;;;;;;;;;;;;;;;4908061;29;19922;-81
2023/08/18 06:57:25;;;;;;;;;;;;;;;;;;4907215;29;19974;-81
2023/08/18 06:59:53;;;;;;;;;;;;;;;;;;4906979;29;20573;-81
2023/08/18 07:02:19;;;;;;;;;;;;;;;;;;4904292;29;19919;-81
2023/08/18 07:04:44;;;;;;;;;;;;;;;;;;4897863;29;19919;-81
2023/08/18 07:07:09;;;;;;;;;;;;;;;;;;4892124;29;19925;-81
2023/08/18 07:09:35;;;;;;;;;;;;;;;;;;4906254;29;19937;-80
2023/08/18 07:12:00;;;;;;;;;;;;;;;;;;4898551;29;19922;-80
2023/08/18 07:14:25;;;;;;;;;;;;;;;;;;4906600;29;19925;-80
2023/08/18 07:16:51;;;;;;;;;;;;;;;;;;4918480;29;20398;-80
2023/08/18 07:19:18;;;;;;;;;;;;;;;;;;4903060;29;19925;-80
2023/08/18 07:21:43;;;;;;;;;;;;;;;;;;4905898;29;19935;-79
2023/08/18 07:24:08;;;;;;;;;;;;;;;;;;4907315;29;19915;-80
2023/08/18 07:26:34;;;;;;;;;;;;;;;;;;4895175;29;19915;-80
2023/08/18 07:28:59;;;;;;;;;;;;;;;;;;4905893;29;19974;-80
2023/08/18 07:31:27;;;;;;;;;;;;;;;;;;4920291;29;20416;-80
2023/08/18 07:33:53;;;;;;;;;;;;;;;;;;4906409;29;19930;-81
2023/08/18 07:36:18;;;;;;;;;;;;;;;;;;4906513;29;20410;-80
2023/08/18 07:38:43;;;;;;;;;;;;;;;;;;4908261;29;20366;-80
2023/08/18 07:41:09;;;;;;;;;;;;;;;;;;4921003;29;19919;-81
2023/08/18 07:43:34;;;;;;;;;;;;;;;;;;4904971;29;19922;-80
2023/08/18 07:45:59;;;;;;;;;;;;;;;;;;4905981;29;19925;-80
2023/08/18 07:48:24;;;;;;;;;;;;;;;;;;4920397;29;20094;-81
2023/08/18 07:50:50;;;;;;;;;;;;;;;;;;4907327;29;20163;-80
2023/08/18 07:53:15;;;;;;;;;;;;;;;;;;4900616;29;19919;-80
2023/08/18 07:55:43;;;;;;;;;;;;;;;;;;4910863;29;19926;-80
2023/08/18 07:58:08;;;;;;;;;;;;;;;;;;4898000;29;19923;-80
2023/08/18 08:00:34;;;;;;;;;;;;;;;;;;4910469;29;19919;-80
2023/08/18 08:02:59;;;;;;;;;;;;;;;;;;4909604;29;19925;-80
2023/08/18 08:05:24;;;;;;;;;;;;;;;;;;4908715;29;19922;-80
2023/08/18 08:07:50;;;;;;;;;;;;;;;;;;4895454;29;19919;-80
2023/08/18 08:10:16;;;;;;;;;;;;;;;;;;4925529;29;19919;-80
2023/08/18 08:12:41;;;;;;;;;;;;;;;;;;4910495;29;19919;-82
2023/08/18 08:15:07;;;;;;;;;;;;;;;;;;4896523;29;20019;-81
2023/08/18 08:17:33;;;;;;;;;;;;;;;;;;4897916;29;19933;-81
2023/08/18 08:20:06;;;;;;;;;;;;;;;;;;4910626;29;19919;-82
2023/08/18 08:22:32;;;;;;;;;;;;;;;;;;4893171;29;19922;-81
2023/08/18 08:24:58;;;;;;;;;;;;;;;;;;4909209;29;20402;-82
2023/08/18 08:27:26;;;;;;;;;;;;;;;;;;4898630;29;20788;-82
2023/08/18 08:29:51;;;;;;;;;;;;;;;;;;4909649;29;19934;-80
2023/08/18 08:32:17;;;;;;;;;;;;;;;;;;4906592;29;19954;-80
2023/08/18 08:34:47;;;;;;;;;;;;;;;;;;4910325;29;19981;-78
2023/08/18 08:37:12;;;;;;;;;;;;;;;;;;4893710;29;19927;-79
2023/08/18 08:39:38;;;;;;;;;;;;;;;;;;4911543;29;19925;-81
2023/08/18 08:42:03;;;;;;;;;;;;;;;;;;4909588;29;19918;-80
2023/08/18 08:44:28;;;;;;;;;;;;;;;;;;4907732;29;19919;-81
2023/08/18 08:46:54;;;;;;;;;;;;;;;;;;4909432;29;20390;-80
2023/08/18 08:49:19;;;;;;;;;;;;;;;;;;4900379;29;19926;-80
2023/08/18 08:51:46;;;;;;;;;;;;;;;;;;4909135;29;19954;-81
2023/08/18 08:54:12;;;;;;;;;;;;;;;;;;4901625;29;20367;-82
2023/08/18 08:56:37;;;;;;;;;;;;;;;;;;4913267;29;19983;-82
2023/08/18 08:59:02;;;;;;;;;;;;;;;;;;4894526;29;19923;-80
2023/08/18 09:01:27;;;;;;;;;;;;;;;;;;4908437;29;19987;-81
2023/08/18 09:03:53;;;;;;;;;;;;;;;;;;4922666;29;19919;-81
2023/08/18 09:06:18;;;;;;;;;;;;;;;;;;4909003;29;20053;-81
2023/08/18 09:08:44;;;;;;;;;;;;;;;;;;4906660;29;20002;-81
2023/08/18 09:11:09;;;;;;;;;;;;;;;;;;4908503;29;19919;-81
2023/08/18 09:13:35;;;;;;;;;;;;;;;;;;4907629;29;19970;-82
2023/08/18 09:16:02;;;;;;;;;;;;;;;;;;4907842;29;19930;-82
2023/08/18 09:18:32;;;;;;;;;;;;;;;;;;4909614;29;19922;-83
2023/08/18 09:20:57;;;;;;;;;;;;;;;;;;4907823;29;19919;-82
2023/08/18 09:23:23;;;;;;;;;;;;;;;;;;4911271;29;19922;-82
2023/08/18 09:25:49;;;;;;;;;;;;;;;;;;4922099;29;19981;-82
2023/08/18 09:28:14;;;;;;;;;;;;;;;;;;4900847;29;19918;-81
2023/08/18 09:30:40;;;;;;;;;;;;;;;;;;4910320;29;20320;-82
2023/08/18 09:33:05;;;;;;;;;;;;;;;;;;4908124;29;19927;-83
2023/08/18 09:35:34;;;;;;;;;;;;;;;;;;4908188;29;19987;-82
2023/08/18 09:37:59;;;;;;;;;;;;;;;;;;4898702;29;19923;-81
2023/08/18 09:40:25;;;;;;;;;;;;;;;;;;4902834;29;20307;-83
2023/08/18 09:42:50;;;;;;;;;;;;;;;;;;4912930;29;20372;-83
2023/08/18 09:45:16;;;;;;;;;;;;;;;;;;4908659;29;19930;-82
2023/08/18 09:47:42;;;;;;;;;;;;;;;;;;4909977;29;19927;-81
2023/08/18 09:50:09;;;;;;;;;;;;;;;;;;4907166;29;19926;-81
2023/08/18 09:52:34;;;;;;;;;;;;;;;;;;4909366;29;19919;-83
2023/08/18 09:54:59;;;;;;;;;;;;;;;;;;4909515;29;19921;-82
2023/08/18 09:57:30;;;;;;;;;;;;;;;;;;4919413;29;19950;-82
2023/08/18 09:59:55;;;;;;;;;;;;;;;;;;4899784;29;20431;-81
2023/08/18 10:02:22;;;;;;;;;;;;;;;;;;4906255;29;19958;-82
2023/08/18 10:04:47;;;;;;;;;;;;;;;;;;4907572;29;19915;-81
2023/08/18 10:07:13;;;;;;;;;;;;;;;;;;4906829;29;19918;-81
2023/08/18 10:09:38;;;;;;;;;;;;;;;;;;4908901;29;19925;-82
2023/08/18 10:12:07;;;;;;;;;;;;;;;;;;4896060;29;20021;-82
2023/08/18 10:14:35;;;;;;;;;;;;;;;;;;4897804;29;19923;-82
2023/08/18 10:17:04;;;;;;;;;;;;;;;;;;4912686;29;19927;-82
2023/08/18 10:19:44;;;;;;;;;;;;;;;;;;4908909;29;19922;-82
2023/08/18 10:22:09;;;;;;;;;;;;;;;;;;4919430;29;20009;-83
2023/08/18 10:24:37;;;;;;;;;;;;;;;;;;4907391;29;19998;-82
2023/08/18 10:27:06;;;;;;;;;;;;;;;;;;4905880;29;19923;-82
2023/08/18 10:29:31;;;;;;;;;;;;;;;;;;4899727;29;20445;-82
2023/08/18 10:31:58;;;;;;;;;;;;;;;;;;4897434;29;19997;-81
2023/08/18 10:34:23;;;;;;;;;;;;;;;;;;4895819;29;20025;-82
2023/08/18 10:36:56;;;;;;;;;;;;;;;;;;4904063;29;20441;-81
2023/08/18 10:39:23;;;;;;;;;;;;;;;;;;4896528;29;19918;-82
2023/08/18 10:42:07;;;;;;;;;;;;;;;;;;4903697;29;19922;-82
2023/08/18 10:44:33;;;;;;;;;;;;;;;;;;4896252;29;19923;-80
2023/08/18 10:46:59;;;;;;;;;;;;;;;;;;4891006;29;19945;-82
2023/08/18 10:49:25;;;;;;;;;;;;;;;;;;4907879;29;19915;-81
2023/08/18 10:51:51;;;;;;;;;;;;;;;;;;4903832;29;19923;-82
2023/08/18 10:54:16;;;;;;;;;;;;;;;;;;4908274;29;19919;-81
2023/08/18 10:56:42;;;;;;;;;;;;;;;;;;4909073;29;20313;-84
2023/08/18 10:59:07;;;;;;;;;;;;;;;;;;4903956;29;19918;-84
2023/08/18 11:01:32;;;;;;;;;;;;;;;;;;4906068;29;19950;-82
2023/08/18 11:03:58;;;;;;;;;;;;;;;;;;4906436;29;19926;-82
2023/08/18 11:06:26;;;;;;;;;;;;;;;;;;4904750;29;19919;-81
2023/08/18 11:08:55;;;;;;;;;;;;;;;;;;4902053;29;19919;-82
2023/08/18 11:11:20;;;;;;;;;;;;;;;;;;4921956;29;19915;-83
2023/08/18 11:13:46;;;;;;;;;;;;;;;;;;4916963;29;20390;-82
2023/08/18 11:16:11;;;;;;;;;;;;;;;;;;4903544;29;19946;-82
2023/08/18 11:18:37;;;;;;;;;;;;;;;;;;4906439;29;19923;-82
2023/08/18 11:21:03;;;;;;;;;;;;;;;;;;4898584;29;20046;-82
2023/08/18 11:23:33;;;;;;;;;;;;;;;;;;4920868;29;19966;-82
2023/08/18 11:25:58;;;;;;;;;;;;;;;;;;4910888;29;19957;-84
2023/08/18 11:28:24;;;;;;;;;;;;;;;;;;4909545;29;20351;-85
2023/08/18 11:30:49;;;;;;;;;;;;;;;;;;4904241;29;19966;-84
2023/08/18 11:33:15;;;;;;;;;;;;;;;;;;4911141;29;20307;-85
2023/08/18 11:35:40;;;;;;;;;;;;;;;;;;4896669;29;19926;-85
2023/08/18 11:38:07;;;;;;;;;;;;;;;;;;4899114;29;20334;-84
2023/08/18 11:40:35;;;;;;;;;;;;;;;;;;4906744;29;20046;-84
2023/08/18 11:43:07;;;;;;;;;;;;;;;;;;4925331;29;19919;-84
2023/08/18 11:45:32;;;;;;;;;;;;;;;;;;4917343;29;19969;-84
2023/08/18 11:47:58;;;;;;;;;;;;;;;;;;4911884;29;20286;-86
2023/08/18 11:50:35;;;;;;;;;;;;;;;;;;4921863;29;19922;-86
2023/08/18 11:53:01;;;;;;;;;;;;;;;;;;4909443;29;20025;-83
2023/08/18 11:55:33;;;;;;;;;;;;;;;;;;4908568;29;20350;-86
2023/08/18 11:58:02;;;;;;;;;;;;;;;;;;4894301;29;19941;-84
2023/08/18 12:00:33;;;;;;;;;;;;;;;;;;4909526;29;20375;-84
2023/08/18 12:02:58;;;;;;;;;;;;;;;;;;4911451;29;19919;-84
2023/08/18 12:05:26;;;;;;;;;;;;;;;;;;4908707;29;19941;-84
2023/08/18 12:07:52;;;;;;;;;;;;;;;;;;4894017;29;19918;-83
2023/08/18 12:10:21;;;;;;;;;;;;;;;;;;4908564;29;19926;-82
2023/08/18 12:13:04;;;;;;;;;;;;;;;;;;4909394;29;20099;-83
2023/08/18 12:15:29;;;;;;;;;;;;;;;;;;4909005;29;20418;-83
2023/08/18 12:17:55;;;;;;;;;;;;;;;;;;4900951;29;19998;-82
2023/08/18 12:20:21;;;;;;;;;;;;;;;;;;4909266;29;19919;-83
2023/08/18 12:22:49;;;;;;;;;;;;;;;;;;4913052;29;20347;-84
2023/08/18 12:25:14;;;;;;;;;;;;;;;;;;4893897;29;20010;-82
2023/08/18 12:27:40;;;;;;;;;;;;;;;;;;4910784;29;20041;-82
2023/08/18 12:30:07;;;;;;;;;;;;;;;;;;4883230;29;19926;-83
2023/08/18 12:32:32;;;;;;;;;;;;;;;;;;4905675;29;20368;-83
2023/08/18 12:34:58;;;;;;;;;;;;;;;;;;4908305;29;19926;-84
2023/08/18 12:37:23;;;;;;;;;;;;;;;;;;4912817;29;19945;-85
2023/08/18 12:39:52;;;;;;;;;;;;;;;;;;4904750;29;19919;-82
2023/08/18 12:42:18;;;;;;;;;;;;;;;;;;4900643;29;19918;-83
2023/08/18 12:44:43;;;;;;;;;;;;;;;;;;4911377;29;19937;-81
2023/08/18 12:47:08;;;;;;;;;;;;;;;;;;4884362;29;19989;-83
2023/08/18 12:49:33;;;;;;;;;;;;;;;;;;4909180;29;19925;-84
2023/08/18 12:51:59;;;;;;;;;;;;;;;;;;4909650;29;20005;-83
2023/08/18 12:54:25;;;;;;;;;;;;;;;;;;4907259;29;19922;-83
2023/08/18 12:56:50;;;;;;;;;;;;;;;;;;4913751;29;20252;-83
2023/08/18 12:59:15;;;;;;;;;;;;;;;;;;4894997;29;19925;-83
2023/08/18 13:01:40;;;;;;;;;;;;;;;;;;4911948;29;19968;-82
2023/08/18 13:04:10;;;;;;;;;;;;;;;;;;4909182;29;19941;-82
2023/08/18 13:06:35;;;;;;;;;;;;;;;;;;4908519;29;20386;-82
2023/08/18 13:09:00;;;;;;;;;;;;;;;;;;4900191;29;19922;-81
2023/08/18 13:11:26;;;;;;;;;;;;;;;;;;4900381;29;19926;-83
2023/08/18 13:13:51;;;;;;;;;;;;;;;;;;4905899;29;20006;-82
2023/08/18 13:16:16;;;;;;;;;;;;;;;;;;4923355;29;19919;-82
2023/08/18 13:18:44;;;;;;;;;;;;;;;;;;4912649;29;19918;-81
2023/08/18 13:21:09;;;;;;;;;;;;;;;;;;4891101;29;19981;-83
2023/08/18 13:23:35;;;;;;;;;;;;;;;;;;4909244;29;19919;-82
2023/08/18 13:26:00;;;;;;;;;;;;;;;;;;4897648;29;20366;-82
2023/08/18 13:28:25;;;;;;;;;;;;;;;;;;4889690;29;19925;-83
2023/08/18 13:30:54;;;;;;;;;;;;;;;;;;4906511;29;20303;-81
2023/08/18 13:33:19;;;;;;;;;;;;;;;;;;4908530;29;20306;-82
2023/08/18 13:35:44;;;;;;;;;;;;;;;;;;4908956;29;19929;-82
2023/08/18 13:38:10;;;;;;;;;;;;;;;;;;4907478;29;19933;-83
2023/08/18 13:40:36;;;;;;;;;;;;;;;;;;4903614;29;19918;-83
2023/08/18 13:43:01;;;;;;;;;;;;;;;;;;4908816;29;20347;-82
2023/08/18 13:45:29;;;;;;;;;;;;;;;;;;4908492;29;19919;-83
2023/08/18 13:47:56;;;;;;;;;;;;;;;;;;4908727;29;19915;-83
2023/08/18 13:50:30;;;;;;;;;;;;;;;;;;4908895;29;19958;-81
2023/08/18 13:52:56;;;;;;;;;;;;;;;;;;4919501;29;19914;-83
2023/08/18 13:55:22;;;;;;;;;;;;;;;;;;4907962;29;19958;-83
2023/08/18 13:57:47;;;;;;;;;;;;;;;;;;4910111;29;20025;-83
2023/08/18 14:00:13;;;;;;;;;;;;;;;;;;4904736;29;20465;-82
2023/08/18 14:02:39;;;;;;;;;;;;;;;;;;4907462;29;19919;-82
2023/08/18 14:05:04;;;;;;;;;;;;;;;;;;4891433;29;19923;-83
2023/08/18 14:07:30;;;;;;;;;;;;;;;;;;4906290;29;19941;-83
2023/08/18 14:09:56;;;;;;;;;;;;;;;;;;4908404;29;19915;-83
2023/08/18 14:12:22;;;;;;;;;;;;;;;;;;4920403;29;19938;-83
2023/08/18 14:14:47;;;;;;;;;;;;;;;;;;4907618;29;20574;-83
2023/08/18 14:17:12;;;;;;;;;;;;;;;;;;4904943;29;19945;-83
2023/08/18 14:19:40;;;;;;;;;;;;;;;;;;4905179;29;19926;-83
2023/08/18 14:22:05;;;;;;;;;;;;;;;;;;4905847;29;19918;-83
2023/08/18 14:24:30;;;;;;;;;;;;;;;;;;4906555;29;20050;-82
2023/08/18 14:26:56;;;;;;;;;;;;;;;;;;4907731;29;19926;-83
2023/08/18 14:29:23;;;;;;;;;;;;;;;;;;4907872;29;19966;-81
2023/08/18 14:31:49;;;;;;;;;;;;;;;;;;4896620;29;19919;-81
2023/08/18 14:34:14;;;;;;;;;;;;;;;;;;4920225;29;20295;-82
2023/08/18 14:36:39;;;;;;;;;;;;;;;;;;4904385;29;19922;-83
2023/08/18 14:39:05;;;;;;;;;;;;;;;;;;4920862;29;19922;-82
2023/08/18 14:41:30;;;;;;;;;;;;;;;;;;4905739;29;19919;-83
2023/08/18 14:43:55;;;;;;;;;;;;;;;;;;4893709;29;20394;-82
2023/08/18 14:46:21;;;;;;;;;;;;;;;;;;4902793;29;20405;-83
2023/08/18 14:48:46;;;;;;;;;;;;;;;;;;4907095;29;20010;-81
2023/08/18 14:51:11;;;;;;;;;;;;;;;;;;4906939;29;19918;-81
2023/08/18 14:53:39;;;;;;;;;;;;;;;;;;4896907;29;20373;-82
2023/08/18 14:56:04;;;;;;;;;;;;;;;;;;4877348;29;19982;-82
2023/08/18 14:58:30;;;;;;;;;;;;;;;;;;4904801;29;19927;-82
2023/08/18 15:00:55;;;;;;;;;;;;;;;;;;4903157;29;19926;-82
2023/08/18 15:03:21;;;;;;;;;;;;;;;;;;4923437;29;19954;-82
2023/08/18 15:05:46;;;;;;;;;;;;;;;;;;4903920;29;19934;-82
2023/08/18 15:08:11;;;;;;;;;;;;;;;;;;4921945;29;20829;-82
2023/08/18 15:10:38;;;;;;;;;;;;;;;;;;4905372;29;19940;-82
2023/08/18 15:13:03;;;;;;;;;;;;;;;;;;4908153;29;20384;-81
2023/08/18 15:15:28;;;;;;;;;;;;;;;;;;4905351;29;19950;-82
2023/08/18 15:17:54;;;;;;;;;;;;;;;;;;4883210;29;19923;-81
2023/08/18 15:20:21;;;;;;;;;;;;;;;;;;4918865;29;19926;-82
2023/08/18 15:22:46;;;;;;;;;;;;;;;;;;4912311;29;20422;-82
2023/08/18 15:25:12;;;;;;;;;;;;;;;;;;4918327;29;19925;-81
2023/08/18 15:27:42;;;;;;;;;;;;;;;;;;4908005;29;19922;-81
2023/08/18 15:30:07;;;;;;;;;;;;;;;;;;4883866;29;20259;-81
2023/08/18 15:32:32;;;;;;;;;;;;;;;;;;4889987;29;19934;-81
2023/08/18 15:34:58;;;;;;;;;;;;;;;;;;4908288;29;20015;-81
2023/08/18 15:37:23;;;;;;;;;;;;;;;;;;4919073;29;20042;-81
2023/08/18 15:39:53;;;;;;;;;;;;;;;;;;4910870;29;19989;-81
2023/08/18 15:42:21;;;;;;;;;;;;;;;;;;4898220;29;20327;-82
2023/08/18 15:44:49;;;;;;;;;;;;;;;;;;4905524;29;19915;-82
2023/08/18 15:47:14;;;;;;;;;;;;;;;;;;4906561;29;19972;-78
2023/08/18 15:49:40;;;;;;;;;;;;;;;;;;4908180;29;19946;-79
2023/08/18 15:52:05;;;;;;;;;;;;;;;;;;4909209;29;20282;-79
2023/08/18 15:54:31;;;;;;;;;;;;;;;;;;4879792;29;19919;-78
2023/08/18 15:56:56;;;;;;;;;;;;;;;;;;4907399;29;20319;-79
2023/08/18 15:59:21;;;;;;;;;;;;;;;;;;4906241;29;20014;-79
2023/08/18 16:01:46;;;;;;;;;;;;;;;;;;4899136;29;20541;-78
2023/08/18 16:04:12;;;;;;;;;;;;;;;;;;4908171;29;19923;-79
2023/08/18 16:06:39;;;;;;;;;;;;;;;;;;4906118;29;19946;-79
2023/08/18 16:09:06;;;;;;;;;;;;;;;;;;4907478;29;19919;-78
2023/08/18 16:11:32;;;;;;;;;;;;;;;;;;4898621;29;20637;-78
2023/08/18 16:13:57;;;;;;;;;;;;;;;;;;4906451;29;20010;-79
2023/08/18 16:16:22;;;;;;;;;;;;;;;;;;4901262;29;19919;-79
2023/08/18 16:18:47;;;;;;;;;;;;;;;;;;4908161;29;19923;-79
2023/08/18 16:21:15;;;;;;;;;;;;;;;;;;4910526;29;19915;-79
2023/08/18 16:23:40;;;;;;;;;;;;;;;;;;4885298;29;19919;-79
2023/08/18 16:26:06;;;;;;;;;;;;;;;;;;4912416;29;19921;-79
2023/08/18 16:28:31;;;;;;;;;;;;;;;;;;4911762;29;19964;-79
2023/08/18 16:30:56;;;;;;;;;;;;;;;;;;4910504;29;19962;-79
2023/08/18 16:33:26;;;;;;;;;;;;;;;;;;4897948;29;19923;-79
2023/08/18 16:35:52;;;;;;;;;;;;;;;;;;4906277;29;21030;-76
2023/08/18 16:38:17;;;;;;;;;;;;;;;;;;4910385;29;20058;-79